Shelby, Montana
Current Conditions -  °F | °C
As of 3:56 PM on Monday 20 Oct 2014 (Local Time) from KCTB Reporting Station
Clear Clear  
Wind Chill: 77°   Ceiling: Unl
Heat Index: 77°   Visibility: 10mi
Dew Point: 25°   Wind: 21mph
Humidity: 15%   Direction: 240°WSW
Pressure: 29.74"   Gusts: 28mph
Location:  48.51°N, 111.86°W
Report Text: KCTB 202156Z AUTO 24018G24KT 10SM CLR 25/M04 A2974 RMK AO2 PK WND 26026/2106 SLP051 T02501039
Loading
Personal Weather Stations






























Interactive Weather Map
Tropical Storm Tracking
New forecast layout! Learn more

10-Day Weather Forecast

Advertisements
Track Severe Weather on mobile